Time;durP1;ratioP1;P1;durP2;ratioP2;P2;SDS_P1;SDS_P2;PMS_P1;PMS_P2;Temp;Humidity;BMP_temperature;BMP_pressure;BME280_temperature;BME280_humidity;BME280_pressure;Samples;Min_cycle;Max_cycle;Signal;HPM_P1;HPM_P2
2022/05/12 00:01:54;;;;;;;6.22;4.30;;;;;;;20.36;59.08;96341.47;5104802;27;20211;-84
2022/05/12 00:04:22;;;;;;;5.75;4.72;;;;;;;20.24;58.98;96339.13;5104452;28;20196;-84
2022/05/12 00:06:49;;;;;;;5.68;4.50;;;;;;;20.23;59.18;96342.16;5103767;28;20200;-84
2022/05/12 00:09:16;;;;;;;4.57;4.18;;;;;;;20.22;59.34;96344.06;5097960;28;20200;-84
2022/05/12 00:11:43;;;;;;;7.13;4.60;;;;;;;20.13;59.57;96343.06;5114207;27;20208;-83
2022/05/12 00:14:10;;;;;;;5.43;4.65;;;;;;;20.06;59.83;96342.63;5100909;28;20205;-84
2022/05/12 00:16:38;;;;;;;9.48;4.90;;;;;;;19.99;60.76;96333.88;5096419;28;20244;-85
2022/05/12 00:19:07;;;;;;;6.47;4.78;;;;;;;20.01;60.32;96337.97;5104437;28;20295;-85
2022/05/12 00:21:34;;;;;;;6.20;4.43;;;;;;;19.98;59.89;96340.50;5099897;28;20244;-83
2022/05/12 00:24:01;;;;;;;7.63;5.03;;;;;;;20.01;59.90;96340.72;5097804;28;20208;-84
2022/05/12 00:26:30;;;;;;;5.80;4.80;;;;;;;20.02;60.08;96341.53;5103055;28;20196;-84
2022/05/12 00:28:58;;;;;;;6.25;4.68;;;;;;;19.99;60.50;96348.41;5101099;28;20219;-84
2022/05/12 00:31:25;;;;;;;6.70;5.03;;;;;;;19.96;60.06;96339.97;5106070;28;20207;-84
2022/05/12 00:33:53;;;;;;;6.25;5.20;;;;;;;19.95;60.67;96338.34;5099183;28;20204;-83
2022/05/12 00:36:21;;;;;;;5.10;4.60;;;;;;;20.00;60.15;96338.28;5099680;28;20208;-84
2022/05/12 00:38:49;;;;;;;8.38;4.95;;;;;;;20.02;60.12;96341.53;5106844;28;20227;-84
2022/05/12 00:41:17;;;;;;;8.43;4.95;;;;;;;19.91;60.18;96334.53;5095447;28;20296;-83
2022/05/12 00:43:48;;;;;;;5.07;4.38;;;;;;;20.02;59.69;96336.88;5101270;28;20287;-85
2022/05/12 00:46:18;;;;;;;6.97;4.43;;;;;;;19.98;59.67;96329.53;5103765;28;20287;-84
2022/05/12 00:48:46;;;;;;;8.05;4.93;;;;;;;20.03;59.48;96334.97;5100051;28;20217;-84
2022/05/12 00:51:16;;;;;;;7.68;4.65;;;;;;;19.98;59.33;96333.09;5100761;28;20222;-83
2022/05/12 00:53:46;;;;;;;7.55;4.72;;;;;;;20.03;59.46;96326.75;5102297;28;20227;-85
2022/05/12 00:56:18;;;;;;;6.85;4.10;;;;;;;20.02;59.55;96331.41;5100155;28;20292;-83
2022/05/12 00:58:48;;;;;;;6.78;5.18;;;;;;;19.99;59.32;96334.72;5099086;28;20223;-85
2022/05/12 01:01:15;;;;;;;5.43;4.93;;;;;;;20.08;59.27;96334.06;5100227;28;20197;-84
2022/05/12 01:03:44;;;;;;;6.10;4.53;;;;;;;20.06;58.84;96326.16;5097955;28;20209;-83
2022/05/12 01:06:14;;;;;;;7.15;4.95;;;;;;;20.14;57.90;96333.75;5096920;28;20220;-84
2022/05/12 01:08:43;;;;;;;5.43;4.35;;;;;;;20.12;58.59;96332.41;5100397;28;20200;-84
2022/05/12 01:11:15;;;;;;;5.47;4.80;;;;;;;20.13;58.59;96323.06;5101332;28;20280;-85
2022/05/12 01:13:43;;;;;;;4.93;4.50;;;;;;;20.13;58.25;96329.38;5100617;28;20227;-85
2022/05/12 01:16:10;;;;;;;5.63;4.45;;;;;;;20.12;58.29;96318.69;5102292;28;20357;-84
2022/05/12 01:18:40;;;;;;;8.27;4.40;;;;;;;20.05;58.57;96326.44;5097425;28;20231;-84
2022/05/12 01:21:10;;;;;;;4.78;4.38;;;;;;;20.10;58.56;96332.69;5099398;28;20277;-83
2022/05/12 01:23:41;;;;;;;7.22;4.68;;;;;;;19.99;58.83;96325.66;5101285;28;20205;-85
2022/05/12 01:26:10;;;;;;;6.97;4.28;;;;;;;19.97;58.94;96338.88;5099051;28;20630;-84
2022/05/12 01:28:38;;;;;;;5.18;4.38;;;;;;;19.97;59.75;96334.22;5096528;28;20215;-84
2022/05/12 01:31:06;;;;;;;4.57;4.10;;;;;;;20.00;60.30;96328.13;5092287;28;20212;-84
2022/05/12 01:33:35;;;;;;;5.18;4.18;;;;;;;19.94;60.44;96340.25;5099115;28;20231;-84
2022/05/12 01:36:02;;;;;;;5.95;4.88;;;;;;;19.91;60.32;96337.28;5100708;28;20522;-84
2022/05/12 01:38:29;;;;;;;6.78;4.40;;;;;;;19.86;60.41;96331.84;5095323;28;20288;-85
2022/05/12 01:40:58;;;;;;;7.38;4.10;;;;;;;19.82;60.24;96331.59;5094549;28;20208;-85
2022/05/12 01:43:25;;;;;;;5.30;3.95;;;;;;;19.79;61.35;96329.47;5095195;28;20299;-83
2022/05/12 01:45:53;;;;;;;6.82;4.20;;;;;;;19.78;61.19;96332.47;5101365;28;20200;-84
2022/05/12 01:48:20;;;;;;;6.20;4.20;;;;;;;19.72;60.85;96337.19;5101851;28;20231;-84
2022/05/12 01:50:48;;;;;;;6.03;4.28;;;;;;;19.74;61.62;96356.06;5103078;28;20215;-85
2022/05/12 01:53:17;;;;;;;4.63;4.10;;;;;;;19.71;63.06;96356.66;5090259;28;20254;-84
2022/05/12 01:55:47;;;;;;;6.55;4.05;;;;;;;19.40;65.00;96359.63;5095486;28;20207;-84
2022/05/12 01:58:15;;;;;;;5.35;4.35;;;;;;;19.41;63.06;96363.16;5092900;28;20240;-85
2022/05/12 02:00:42;;;;;;;9.27;4.63;;;;;;;19.39;64.32;96368.97;5101086;28;20203;-83
2022/05/12 02:03:10;;;;;;;9.13;4.72;;;;;;;19.22;66.62;96366.59;5103537;28;20212;-84
2022/05/12 02:05:39;;;;;;;6.20;4.90;;;;;;;18.98;68.68;96375.78;5098272;28;20225;-84
2022/05/12 02:08:08;;;;;;;5.10;4.60;;;;;;;18.85;69.89;96378.06;5095386;28;20204;-84
2022/05/12 02:10:39;;;;;;;6.65;5.03;;;;;;;18.78;70.98;96372.09;5101618;28;20212;-84
2022/05/12 02:13:07;;;;;;;7.55;5.15;;;;;;;18.76;71.73;96381.66;5102704;28;20239;-84
2022/05/12 02:15:36;;;;;;;5.53;4.45;;;;;;;18.78;72.02;96393.97;5102883;28;20257;-84
2022/05/12 02:18:03;;;;;;;5.90;4.43;;;;;;;18.65;73.27;96389.09;5097593;28;20239;-84
2022/05/12 02:20:30;;;;;;;5.65;4.88;;;;;;;18.45;74.68;96397.34;5098845;28;20224;-84
2022/05/12 02:22:57;;;;;;;6.38;5.07;;;;;;;18.32;75.01;96392.47;5093281;28;20211;-83
2022/05/12 02:25:24;;;;;;;7.63;5.17;;;;;;;18.27;75.12;96396.03;5105265;28;20202;-84
2022/05/12 02:27:52;;;;;;;5.00;4.50;;;;;;;18.25;76.11;96392.75;5101679;28;20218;-84
2022/05/12 02:30:22;;;;;;;6.10;5.50;;;;;;;18.08;78.96;96401.28;5100800;28;20205;-84
2022/05/12 02:32:51;;;;;;;8.17;5.40;;;;;;;18.01;79.31;96406.22;5099619;28;20232;-84
2022/05/12 02:35:18;;;;;;;6.83;5.43;;;;;;;17.95;79.95;96396.38;5092391;28;20296;-84
2022/05/12 02:37:46;;;;;;;6.00;4.77;;;;;;;17.97;80.82;96405.13;5103406;28;20224;-84
2022/05/12 02:40:17;;;;;;;6.47;5.27;;;;;;;17.86;81.93;96416.34;5097968;28;20201;-84
2022/05/12 02:42:45;;;;;;;6.47;5.20;;;;;;;17.68;82.75;96413.06;5100067;28;20201;-83
2022/05/12 02:45:13;;;;;;;7.53;5.23;;;;;;;17.60;84.40;96421.78;5099682;28;20193;-84
2022/05/12 02:47:41;;;;;;;6.60;5.40;;;;;;;17.56;85.15;96422.59;5093425;28;20207;-84
2022/05/12 02:50:11;;;;;;;5.67;5.00;;;;;;;17.47;85.49;96425.03;5098331;28;20207;-84
2022/05/12 02:52:38;;;;;;;6.93;4.97;;;;;;;17.52;85.64;96424.25;5094544;28;20223;-83
2022/05/12 02:55:07;;;;;;;7.73;5.33;;;;;;;17.61;85.25;96425.31;5100846;28;20211;-83
2022/05/12 02:57:34;;;;;;;6.53;5.03;;;;;;;17.59;85.66;96430.25;5101175;28;20216;-84
2022/05/12 03:00:02;;;;;;;7.87;5.30;;;;;;;17.62;84.66;96432.44;5098890;28;20212;-83
2022/05/12 03:02:29;;;;;;;9.70;5.13;;;;;;;17.64;84.73;96433.81;5092230;28;20208;-84
2022/05/12 03:04:56;;;;;;;6.33;5.10;;;;;;;17.50;87.03;96437.34;5099253;28;20200;-84
2022/05/12 03:07:24;;;;;;;8.40;4.90;;;;;;;17.38;88.27;96437.59;5100276;28;20200;-85
2022/05/12 03:09:51;;;;;;;6.67;5.50;;;;;;;17.35;87.97;96428.03;5103281;28;20211;-85
2022/05/12 03:12:19;;;;;;;6.40;4.80;;;;;;;17.33;88.44;96434.84;5106725;28;20231;-85
2022/05/12 03:14:46;;;;;;;7.53;4.90;;;;;;;17.29;88.67;96439.22;5102770;28;20207;-84
2022/05/12 03:17:13;;;;;;;6.63;5.00;;;;;;;17.24;88.55;96436.47;5095145;28;20232;-84
2022/05/12 03:19:40;;;;;;;5.87;5.00;;;;;;;17.26;89.33;96443.31;5101870;28;20278;-83
2022/05/12 03:22:07;;;;;;;7.30;4.83;;;;;;;17.25;90.68;96446.31;5105397;28;20232;-84
2022/05/12 03:24:35;;;;;;;5.70;4.93;;;;;;;17.22;90.55;96447.66;5100627;28;20197;-83
2022/05/12 03:27:02;;;;;;;8.17;5.57;;;;;;;17.23;88.86;96441.13;5099123;28;20276;-83
2022/05/12 03:29:29;;;;;;;8.07;6.10;;;;;;;17.19;90.09;96436.44;5097801;28;20228;-83
2022/05/12 03:31:56;;;;;;;5.33;4.53;;;;;;;17.19;89.05;96439.19;5106498;28;20204;-84
2022/05/12 03:34:23;;;;;;;6.13;5.10;;;;;;;17.21;88.58;96447.91;5104182;28;20211;-83
2022/05/12 03:36:50;;;;;;;6.87;5.37;;;;;;;17.20;88.40;96449.00;5105212;28;20200;-85
2022/05/12 03:39:17;;;;;;;9.53;6.87;;;;;;;17.30;89.24;96459.94;5104602;28;20232;-84
2022/05/12 03:41:46;;;;;;;8.73;6.20;;;;;;;17.32;88.80;96464.06;5105081;28;20226;-84
2022/05/12 03:46:57;;;;;;;7.63;5.10;;;;;;;17.23;88.76;96465.69;5099112;28;20216;-84
2022/05/12 03:49:24;;;;;;;6.43;5.03;;;;;;;17.14;88.48;96471.91;5104497;28;20618;-84
2022/05/12 03:51:51;;;;;;;6.13;5.13;;;;;;;17.15;88.64;96479.84;5097240;28;20216;-84
2022/05/12 03:54:18;;;;;;;15.17;8.40;;;;;;;17.16;91.37;96477.94;5102909;28;20281;-83
2022/05/12 03:56:47;;;;;;;8.57;6.83;;;;;;;17.12;91.00;96464.00;5102939;28;20203;-83
2022/05/12 03:59:14;;;;;;;7.50;4.93;;;;;;;17.18;89.26;96467.59;5106899;28;20220;-84
2022/05/12 04:01:41;;;;;;;9.90;5.60;;;;;;;17.00;89.74;96477.06;5101721;28;20227;-83
2022/05/12 04:04:08;;;;;;;7.67;5.30;;;;;;;16.96;90.32;96486.88;5098999;27;20204;-83
2022/05/12 04:06:36;;;;;;;11.10;6.07;;;;;;;16.91;91.55;96489.59;5101902;28;20212;-84
2022/05/12 04:09:03;;;;;;;8.87;7.80;;;;;;;16.99;92.53;96489.06;5099094;28;20211;-84
2022/05/12 04:11:30;;;;;;;8.37;5.87;;;;;;;16.94;92.53;96480.84;5097503;28;20276;-84
2022/05/12 04:13:58;;;;;;;6.97;5.07;;;;;;;16.93;91.64;96476.47;5106595;28;20266;-83
2022/05/12 04:16:26;;;;;;;7.37;5.30;;;;;;;16.98;91.78;96474.59;5096942;28;20237;-83
2022/05/12 04:18:53;;;;;;;8.57;5.77;;;;;;;16.93;91.94;96473.75;5113834;27;20212;-84
2022/05/12 04:21:20;;;;;;;7.57;5.20;;;;;;;16.88;91.67;96481.94;5119750;27;20287;-84
2022/05/12 04:23:47;;;;;;;8.80;5.70;;;;;;;16.89;91.83;96473.47;5102939;28;20193;-83
2022/05/12 04:26:14;;;;;;;9.57;5.20;;;;;;;16.91;91.66;96478.69;5104989;28;20207;-84
2022/05/12 04:28:41;;;;;;;5.87;5.20;;;;;;;16.93;90.95;96469.13;5098454;28;20200;-84
2022/05/12 04:31:10;;;;;;;11.97;6.00;;;;;;;16.77;90.68;96472.06;5100757;28;20212;-83
2022/05/12 04:36:21;;;;;;;6.33;5.37;;;;;;;16.58;92.83;96486.13;5101067;28;20212;-84
2022/05/12 04:38:48;;;;;;;5.97;5.00;;;;;;;16.65;92.96;96488.66;5093228;28;20228;-83
2022/05/12 04:41:16;;;;;;;7.13;5.40;;;;;;;16.71;92.11;96494.94;5104471;28;20268;-83
2022/05/12 04:43:43;;;;;;;9.23;7.70;;;;;;;16.75;91.09;96493.34;5100032;28;20212;-84
2022/05/12 04:46:11;;;;;;;6.00;5.27;;;;;;;16.79;89.03;96494.44;5104207;28;20208;-84
2022/05/12 04:48:40;;;;;;;12.13;8.57;;;;;;;16.82;88.71;96491.19;5102746;28;20294;-85
2022/05/12 04:51:08;;;;;;;8.27;5.23;;;;;;;16.87;88.61;96493.91;5104869;28;20204;-83
2022/05/12 04:53:35;;;;;;;6.87;6.17;;;;;;;16.82;92.93;96493.91;5101543;28;20258;-83
2022/05/12 04:56:02;;;;;;;11.47;6.67;;;;;;;16.72;91.46;96497.41;5105589;28;20201;-84
2022/05/12 04:58:29;;;;;;;7.17;4.60;;;;;;;16.70;89.40;96498.75;5101936;28;20220;-83
2022/05/12 05:00:56;;;;;;;10.27;7.20;;;;;;;16.77;89.16;96502.06;5114544;27;20201;-84
2022/05/12 05:03:25;;;;;;;12.53;9.53;;;;;;;16.80;90.04;96498.81;5095256;28;20211;-84
2022/05/12 05:05:52;;;;;;;9.37;8.13;;;;;;;16.82;93.65;96502.91;5091363;28;20231;-83
2022/05/12 05:08:21;;;;;;;8.80;5.10;;;;;;;16.81;91.78;96519.53;5092707;28;20268;-83
2022/05/12 05:10:48;;;;;;;8.13;5.20;;;;;;;16.77;91.41;96508.31;5098887;28;20363;-84
2022/05/12 05:13:18;;;;;;;9.07;5.20;;;;;;;16.79;90.70;96521.69;5100997;28;20297;-84
2022/05/12 05:15:45;;;;;;;7.27;6.00;;;;;;;16.79;91.00;96530.69;5107465;27;20212;-85
2022/05/12 05:18:15;;;;;;;7.47;5.57;;;;;;;16.62;95.44;96536.34;5094609;28;20243;-84
2022/05/12 05:20:44;;;;;;;9.50;6.23;;;;;;;16.53;96.39;96540.63;5094561;28;20219;-83
2022/05/12 05:23:12;;;;;;;7.80;6.20;;;;;;;16.48;96.63;96540.59;5100095;28;20201;-83
2022/05/12 05:25:40;;;;;;;7.80;5.60;;;;;;;16.51;97.10;96550.94;5096990;28;20199;-84
2022/05/12 05:28:07;;;;;;;8.97;5.80;;;;;;;16.34;99.33;96550.28;5095957;28;20213;-83
2022/05/12 05:30:34;;;;;;;7.90;5.87;;;;;;;16.27;100.00;96555.16;5102914;28;20204;-82
2022/05/12 05:33:01;;;;;;;7.17;6.43;;;;;;;16.27;100.00;96555.16;5100507;28;20209;-83
2022/05/12 05:35:28;;;;;;;8.10;5.50;;;;;;;16.28;100.00;96567.69;5101680;28;20295;-84
2022/05/12 05:37:57;;;;;;;11.33;5.70;;;;;;;16.22;100.00;96557.84;5100309;28;20204;-83
2022/05/12 05:40:26;;;;;;;14.23;8.73;;;;;;;16.18;100.00;96571.16;5101750;28;20248;-84
2022/05/12 05:42:54;;;;;;;10.70;7.70;;;;;;;16.24;100.00;96572.84;5100651;28;20196;-83
2022/05/12 05:45:23;;;;;;;8.47;6.83;;;;;;;16.30;100.00;96581.88;5097267;28;20212;-84
2022/05/12 05:47:52;;;;;;;9.50;6.90;;;;;;;16.39;100.00;96579.50;5098156;27;20208;-84
2022/05/12 05:50:22;;;;;;;8.67;7.67;;;;;;;16.34;100.00;96580.25;5113129;27;20235;-83
2022/05/12 05:55:35;;;;;;;12.87;9.67;;;;;;;16.36;100.00;96580.81;5095728;28;20215;-83
2022/05/12 05:58:04;;;;;;;10.33;8.33;;;;;;;16.40;100.00;96587.41;5101013;28;20200;-83
2022/05/12 06:00:32;;;;;;;13.00;7.40;;;;;;;16.41;100.00;96589.06;5098511;28;20262;-82
2022/05/12 06:03:00;;;;;;;10.27;7.20;;;;;;;16.47;100.00;96593.47;5103949;28;20235;-82
2022/05/12 06:05:28;;;;;;;9.90;7.73;;;;;;;16.39;100.00;96590.41;5104652;28;20200;-84
2022/05/12 06:07:57;;;;;;;8.40;7.17;;;;;;;16.34;100.00;96596.63;5091229;28;20219;-84
2022/05/12 06:10:24;;;;;;;9.50;7.30;;;;;;;16.37;100.00;96592.56;5100288;28;20196;-83
2022/05/12 06:12:53;;;;;;;12.40;7.60;;;;;;;16.39;100.00;96604.03;5103985;28;20200;-82
2022/05/12 06:15:20;;;;;;;8.20;6.20;;;;;;;16.33;100.00;96602.34;5095874;28;20204;-85
2022/05/12 06:17:47;;;;;;;7.80;6.47;;;;;;;16.26;100.00;96602.53;5101442;28;20231;-84
2022/05/12 06:20:14;;;;;;;7.73;6.97;;;;;;;16.27;100.00;96604.19;5099647;28;20227;-84
2022/05/12 06:22:41;;;;;;;8.10;7.27;;;;;;;16.31;100.00;96596.34;5101469;28;20211;-82
2022/05/12 06:25:11;;;;;;;10.03;7.10;;;;;;;16.35;100.00;96600.16;5100530;28;20232;-83
2022/05/12 06:27:38;;;;;;;8.27;6.67;;;;;;;16.32;100.00;96606.97;5099989;28;20205;-84
2022/05/12 06:30:11;;;;;;;10.73;6.53;;;;;;;16.30;100.00;96602.84;5104717;28;20235;-83
2022/05/12 06:32:39;;;;;;;9.83;7.47;;;;;;;16.26;100.00;96602.53;5097622;28;20226;-83
2022/05/12 06:35:07;;;;;;;12.20;6.80;;;;;;;16.26;100.00;96606.09;5100753;28;20302;-83
2022/05/12 06:37:34;;;;;;;11.40;6.40;;;;;;;16.35;100.00;96602.88;5093138;28;20196;-83
2022/05/12 06:40:02;;;;;;;8.53;6.63;;;;;;;16.40;100.00;96598.31;5103359;28;20303;-83
2022/05/12 06:42:30;;;;;;;8.87;6.33;;;;;;;16.33;100.00;96595.00;5104524;27;20195;-83
2022/05/12 06:45:01;;;;;;;7.50;6.60;;;;;;;16.36;100.00;96596.34;5104784;28;20208;-83
2022/05/12 06:47:31;;;;;;;7.57;6.40;;;;;;;16.43;100.00;96602.41;5102364;28;20232;-83
2022/05/12 06:50:01;;;;;;;8.00;6.50;;;;;;;16.53;100.00;96603.31;5102754;27;20196;-82
2022/05/12 06:52:28;;;;;;;7.80;6.23;;;;;;;16.61;100.00;96610.22;5095763;28;20216;-83
2022/05/12 06:54:56;;;;;;;6.47;5.47;;;;;;;16.70;100.00;96605.91;5103412;28;20211;-83
2022/05/12 06:57:27;;;;;;;8.13;5.90;;;;;;;16.75;100.00;96605.13;5098961;28;20239;-83
2022/05/12 06:59:55;;;;;;;8.03;5.77;;;;;;;16.62;100.00;96601.78;5105887;28;20297;-82
2022/05/12 07:02:22;;;;;;;7.20;5.97;;;;;;;16.54;100.00;96594.06;5096399;27;20204;-83
2022/05/12 07:04:52;;;;;;;8.37;5.83;;;;;;;16.62;100.00;96595.50;5103780;28;20203;-82
2022/05/12 07:07:21;;;;;;;10.80;6.20;;;;;;;16.66;100.00;96590.34;5122051;27;20215;-83
2022/05/12 07:09:52;;;;;;;9.77;6.00;;;;;;;16.74;100.00;96603.50;5120108;27;20204;-83
2022/05/12 07:12:20;;;;;;;8.13;6.10;;;;;;;16.89;100.00;96601.69;5105145;28;20283;-83
2022/05/12 07:14:47;;;;;;;5.97;4.90;;;;;;;17.18;100.00;96593.09;5104085;28;20197;-82
2022/05/12 07:17:19;;;;;;;8.57;5.40;;;;;;;17.62;100.00;96594.38;5107487;28;20362;-83
2022/05/12 07:19:46;;;;;;;6.30;5.27;;;;;;;17.74;98.91;96584.03;5113802;27;20235;-83
2022/05/12 07:27:44;;;;;;;5.70;5.03;;;;;;;18.51;92.64;96579.44;5106853;28;20192;-83
2022/05/12 07:30:12;;;;;;;6.10;4.30;;;;;;;18.68;91.81;96576.44;5101562;28;20208;-84
2022/05/12 07:32:40;;;;;;;5.20;4.70;;;;;;;18.64;88.37;96572.59;5100756;28;20201;-82
2022/05/12 07:35:09;;;;;;;5.33;4.40;;;;;;;18.57;88.28;96561.94;5099061;28;20234;-82
2022/05/12 07:37:38;;;;;;;5.17;4.37;;;;;;;19.01;86.00;96564.06;5096758;28;20200;-83
2022/05/12 07:40:07;;;;;;;5.70;4.53;;;;;;;19.37;81.13;96557.34;5101013;28;20220;-83
2022/05/12 07:42:35;;;;;;;8.97;5.10;;;;;;;19.74;73.99;96564.28;5104385;28;20211;-83
2022/05/12 07:45:02;;;;;;;8.10;4.80;;;;;;;20.13;70.30;96567.88;5104280;28;20208;-82
2022/05/12 07:47:29;;;;;;;4.63;4.22;;;;;;;20.51;73.78;96565.38;5052050;28;20341;-84
2022/05/12 07:49:57;;;;;;;6.05;4.60;;;;;;;20.26;73.73;96550.75;5045664;28;20222;-83
2022/05/12 07:52:26;;;;;;;7.30;4.88;;;;;;;20.55;74.77;96558.22;5040399;28;20209;-83
2022/05/12 07:54:55;;;;;;;7.57;5.43;;;;;;;20.92;69.00;96557.59;5044430;28;20297;-82
2022/05/12 07:57:22;;;;;;;9.43;5.45;;;;;;;21.24;66.50;96557.81;5043590;28;20195;-83
2022/05/12 07:59:50;;;;;;;10.18;5.50;;;;;;;21.60;66.16;96560.09;5035349;28;20561;-83
2022/05/12 08:02:18;;;;;;;7.45;5.57;;;;;;;21.90;66.39;96556.91;5042796;28;20208;-83
2022/05/12 08:04:46;;;;;;;9.90;5.72;;;;;;;22.16;64.19;96551.88;5043489;28;20218;-84
2022/05/12 08:07:13;;;;;;;7.75;6.07;;;;;;;22.36;62.48;96545.25;5040641;28;20218;-84
2022/05/12 08:09:40;;;;;;;7.28;5.60;;;;;;;22.52;60.30;96539.19;5042640;28;20214;-85
2022/05/12 08:12:09;;;;;;;9.63;5.75;;;;;;;22.36;62.34;96545.25;5032079;28;20213;-84
2022/05/12 08:14:36;;;;;;;7.03;5.18;;;;;;;22.25;64.33;96544.59;5031760;28;20274;-86
2022/05/12 08:17:04;;;;;;;5.95;5.35;;;;;;;22.34;65.02;96548.28;5038729;28;20241;-84
2022/05/12 08:19:34;;;;;;;5.95;5.35;;;;;;;22.45;63.99;96540.69;5038278;28;20234;-84
2022/05/12 08:22:01;;;;;;;8.73;5.97;;;;;;;22.76;62.87;96546.50;5049048;28;20223;-83
2022/05/12 08:24:28;;;;;;;7.82;6.05;;;;;;;23.04;61.24;96550.09;5058851;28;20242;-84
2022/05/12 08:26:55;;;;;;;8.32;6.30;;;;;;;23.20;58.78;96546.75;5043870;28;20194;-83
2022/05/12 08:29:24;;;;;;;8.35;5.68;;;;;;;23.44;57.17;96548.47;5039807;28;20284;-83
2022/05/12 08:31:51;;;;;;;11.35;5.65;;;;;;;23.57;57.47;96551.22;5039889;28;20217;-83
2022/05/12 08:34:18;;;;;;;8.55;5.47;;;;;;;23.79;57.11;96553.25;5038452;28;20270;-83
2022/05/12 08:36:45;;;;;;;8.27;5.70;;;;;;;24.07;55.96;96560.31;5039425;28;20203;-84
2022/05/12 08:39:12;;;;;;;7.75;6.03;;;;;;;24.13;54.83;96553.56;5039359;28;20505;-84
2022/05/12 08:41:44;;;;;;;6.13;5.53;;;;;;;24.18;56.06;96549.03;5046862;28;20229;-84
2022/05/12 08:44:14;;;;;;;7.53;5.60;;;;;;;23.92;55.88;96546.06;5042168;28;20277;-84
2022/05/12 08:46:47;;;;;;;7.63;5.32;;;;;;;23.94;56.95;96554.84;5038460;28;20218;-84
2022/05/12 08:49:23;;;;;;;5.40;4.90;;;;;;;23.63;55.75;96560.22;5031300;28;20211;-84
2022/05/12 08:51:53;;;;;;;11.85;5.55;;;;;;;23.58;57.31;96565.81;5047061;28;20206;-84
2022/05/12 08:54:25;;;;;;;7.18;5.05;;;;;;;23.64;56.56;96564.63;5044459;28;20285;-83
2022/05/12 08:56:59;;;;;;;5.85;4.75;;;;;;;23.88;53.86;96565.19;5044592;28;20218;-84
2022/05/12 08:59:27;;;;;;;7.93;5.03;;;;;;;24.01;50.90;96549.69;5043424;28;20229;-84
2022/05/12 09:02:11;;;;;;;4.90;4.32;;;;;;;24.04;47.97;96552.66;5039920;28;20230;-83
2022/05/12 09:05:05;;;;;;;6.68;4.65;;;;;;;24.16;46.86;96562.34;5044094;28;20217;-83
2022/05/12 09:07:39;;;;;;;5.45;4.68;;;;;;;24.20;49.04;96558.66;5011409;28;20211;-84
2022/05/12 09:10:28;;;;;;;11.40;5.10;;;;;;;24.47;50.11;96563.25;5037657;28;20232;-84
2022/05/12 09:13:00;;;;;;;7.97;4.68;;;;;;;24.63;47.22;96553.47;5039153;28;20215;-84
2022/05/12 09:15:31;;;;;;;8.13;4.78;;;;;;;24.66;48.81;96568.59;5036612;28;20397;-84
2022/05/12 09:18:01;;;;;;;6.45;4.22;;;;;;;24.74;48.29;96562.31;5040907;28;20230;-83
2022/05/12 09:20:32;;;;;;;5.88;4.93;;;;;;;24.58;49.45;96555.56;5043627;28;20245;-84
2022/05/12 09:23:00;;;;;;;5.97;4.90;;;;;;;24.60;51.69;96565.13;5053442;28;20297;-83
2022/05/12 09:25:33;;;;;;;7.47;5.10;;;;;;;24.60;51.81;96565.13;5044445;28;20283;-83
2022/05/12 09:28:18;;;;;;;7.10;5.05;;;;;;;24.62;52.83;96559.31;5036646;28;20211;-83
2022/05/12 09:30:48;;;;;;;7.68;4.93;;;;;;;24.57;52.80;96554.75;5045881;28;20203;-83
2022/05/12 09:33:26;;;;;;;9.10;4.60;;;;;;;24.67;50.77;96568.25;5045422;28;20288;-84
2022/05/12 09:35:58;;;;;;;9.25;4.93;;;;;;;24.62;50.20;96559.31;5044139;28;20213;-83
2022/05/12 09:38:27;;;;;;;5.97;4.47;;;;;;;24.69;51.19;96554.97;5031508;28;20305;-84
2022/05/12 09:40:55;;;;;;;7.70;4.90;;;;;;;24.78;52.15;96552.25;5051082;28;20233;-84
2022/05/12 09:43:28;;;;;;;6.57;4.68;;;;;;;25.03;50.41;96548.03;5039470;28;20222;-84
2022/05/12 09:46:09;;;;;;;5.50;4.50;;;;;;;25.11;50.27;96555.53;5036258;28;20217;-84
2022/05/12 09:48:40;;;;;;;5.50;5.00;;;;;;;25.01;49.54;96555.84;5034534;28;20213;-84
2022/05/12 09:51:30;;;;;;;5.32;4.57;;;;;;;25.11;49.28;96550.81;5044584;28;20213;-84
2022/05/12 09:54:18;;;;;;;5.10;4.60;;;;;;;25.23;48.73;96551.06;5043883;28;20212;-84
2022/05/12 09:56:56;;;;;;;7.80;4.68;;;;;;;25.46;48.75;96546.25;5033789;28;20217;-83
2022/05/12 09:59:27;;;;;;;6.53;4.57;;;;;;;25.59;49.28;96544.53;5033709;28;20242;-83
2022/05/12 10:01:57;;;;;;;6.55;4.63;;;;;;;25.63;48.29;96535.25;5036011;28;20222;-85
2022/05/12 10:10:14;;;;;;;5.93;4.50;;;;;;;25.75;48.48;96542.13;5032825;28;20217;-84
2022/05/12 10:12:47;;;;;;;8.27;4.68;;;;;;;25.83;47.11;96546.84;5034460;28;20297;-83
2022/05/12 10:15:23;;;;;;;7.20;4.78;;;;;;;26.03;45.46;96540.69;5040440;28;20203;-84
2022/05/12 10:17:54;;;;;;;5.35;4.10;;;;;;;25.97;45.59;96522.63;5047544;28;20230;-83
2022/05/12 10:20:26;;;;;;;5.13;4.22;;;;;;;26.15;45.85;96521.47;5035812;28;20234;-83
2022/05/12 10:23:00;;;;;;;4.65;3.90;;;;;;;26.15;45.98;96527.03;5037751;28;20261;-84
2022/05/12 10:26:02;;;;;;;5.07;4.57;;;;;;;26.10;44.59;96523.59;5030780;28;20198;-84
2022/05/12 10:28:50;;;;;;;8.23;4.15;;;;;;;26.17;44.93;96527.50;5043298;28;20272;-83
2022/05/12 10:31:26;;;;;;;5.07;4.18;;;;;;;26.13;43.98;96532.06;5036009;28;20221;-83
2022/05/12 10:34:02;;;;;;;6.57;4.00;;;;;;;26.17;44.56;96516.44;5033078;28;20224;-84
2022/05/12 10:36:52;;;;;;;9.70;4.93;;;;;;;26.27;45.08;96516.16;5043196;28;20260;-84
2022/05/12 10:39:28;;;;;;;5.03;4.10;;;;;;;26.37;44.07;96520.50;5035960;28;20217;-83
2022/05/12 10:42:13;;;;;;;4.80;4.00;;;;;;;26.43;44.87;96505.38;5036792;28;20234;-83
2022/05/12 10:44:54;;;;;;;4.40;4.00;;;;;;;26.51;43.44;96498.19;5043566;28;20279;-83
2022/05/12 10:47:44;;;;;;;4.25;3.85;;;;;;;26.56;43.60;96500.78;5042220;28;20230;-83
2022/05/12 10:50:19;;;;;;;5.72;4.20;;;;;;;26.81;43.88;96502.66;5041858;28;20213;-83
2022/05/12 10:52:55;;;;;;;7.43;4.20;;;;;;;26.71;43.17;96497.50;5028302;28;20210;-83
2022/05/12 10:55:28;;;;;;;6.18;4.10;;;;;;;26.86;42.75;96504.47;5046098;28;20220;-83
2022/05/12 10:58:06;;;;;;;9.90;4.20;;;;;;;26.80;43.13;96498.25;5030825;28;20211;-83
2022/05/12 11:00:50;;;;;;;5.72;3.80;;;;;;;27.08;42.98;96496.75;5036977;28;20226;-83
2022/05/12 11:03:23;;;;;;;7.43;4.10;;;;;;;27.27;41.83;96489.97;5036240;28;20238;-84
2022/05/12 11:05:54;;;;;;;7.05;4.00;;;;;;;27.23;40.84;96486.22;5037971;28;20214;-83
2022/05/12 11:08:29;;;;;;;4.65;3.53;;;;;;;27.26;41.08;96480.84;5051477;28;20293;-83
2022/05/12 11:10:59;;;;;;;6.72;3.70;;;;;;;27.21;41.20;96472.72;5043741;28;20234;-83
2022/05/12 11:13:33;;;;;;;4.30;3.90;;;;;;;27.34;42.54;96468.06;5039687;28;20249;-84
2022/05/12 11:16:03;;;;;;;5.35;4.05;;;;;;;27.50;41.30;96469.13;5041773;28;20288;-84
2022/05/12 11:18:38;;;;;;;5.47;4.03;;;;;;;27.49;40.45;96464.72;5044393;28;20217;-84
2022/05/12 11:21:15;;;;;;;4.70;3.95;;;;;;;27.54;41.86;96459.03;5044212;28;20225;-84
2022/05/12 11:23:56;;;;;;;6.05;3.90;;;;;;;27.78;40.33;96464.72;5041128;28;20194;-85
2022/05/12 11:26:45;;;;;;;6.25;4.05;;;;;;;27.94;39.68;96459.38;5043941;28;20207;-84
2022/05/12 11:32:17;;;;;;;7.15;4.55;;;;;;;28.20;40.83;96448.06;5044390;28;20206;-84
2022/05/12 11:34:48;;;;;;;5.60;4.53;;;;;;;28.02;39.82;96441.00;5045065;28;20206;-84
2022/05/12 11:37:32;;;;;;;5.30;4.10;;;;;;;28.03;40.34;96431.53;5040931;28;20206;-85
2022/05/12 11:40:05;;;;;;;6.78;3.70;;;;;;;28.13;39.28;96442.22;5039921;28;20213;-84
2022/05/12 11:48:35;;;;;;;5.30;3.92;;;;;;;28.70;38.70;96427.59;5124152;27;1351086;-83
2022/05/12 11:51:21;;;;;;;7.05;3.95;;;;;;;28.59;37.78;96419.69;5116023;28;20212;-84
2022/05/12 11:54:01;;;;;;;5.93;3.72;;;;;;;28.69;37.77;96415.66;5120940;28;20195;-83
2022/05/12 11:56:55;;;;;;;4.90;4.00;;;;;;;28.76;37.66;96415.09;5119823;27;20207;-83
2022/05/12 11:59:38;;;;;;;8.48;4.05;;;;;;;28.65;38.68;96409.19;5100049;27;20221;-83
2022/05/12 12:02:27;;;;;;;6.70;4.18;;;;;;;28.51;39.20;96398.38;5116514;27;20248;-83
2022/05/12 12:04:58;;;;;;;6.10;3.90;;;;;;;28.75;37.02;96397.59;5118666;27;20213;-83
2022/05/12 12:08:01;;;;;;;5.68;3.85;;;;;;;28.93;36.73;96393.47;5122707;27;20227;-87
2022/05/12 12:10:37;;;;;;;13.95;4.10;;;;;;;29.04;36.30;96393.84;5115166;27;20220;-89
2022/05/12 12:13:32;;;;;;;7.95;4.18;;;;;;;29.09;36.78;96381.69;5122621;27;20251;-90
2022/05/12 12:16:05;;;;;;;6.32;3.70;;;;;;;29.31;35.08;96375.63;5125057;27;20256;-92